Time;durP1;ratioP1;P1;durP2;ratioP2;P2;SDS_P1;SDS_P2;PMS_P1;PMS_P2;Temp;Humidity;BMP_temperature;BMP_pressure;BME280_temperature;BME280_humidity;BME280_pressure;Samples;Min_cycle;Max_cycle;Signal;HPM_P1;HPM_P2
2024/04/01 20:13:43;;;;;;;;;;;;;;;;;;1049035;27;19919;-49
2024/04/01 20:14:14;;;;;;;;;;;;;;;;;;1029822;28;19908;-50
2024/04/01 20:14:45;;;;;;;;;;;;;;;;;;1000919;28;72020;-51
2024/04/01 20:15:16;;;;;;;;;;;;;;;;;;1043581;28;20019;-50
2024/04/01 20:15:48;;;;;;;;;;;;;;;;;;1045238;28;20000;-50
2024/04/01 20:16:19;;;;;;;;;;;;;;;;;;1043282;28;19928;-49
2024/04/01 20:16:50;;;;;;;;;;;;;;;;;;1012286;28;20016;-51
2024/04/01 20:17:22;;;;;;;;;;;;;;;;;;1042755;28;19949;-52
2024/04/01 20:17:54;;;;;;;;;;;;;;;;;;1049791;28;19966;-42
2024/04/01 20:18:25;;;;;;;;;;;;;;;;;;993152;28;20591;-48
2024/04/01 20:18:56;;;;;;;;;;;;;;;;;;987747;28;20007;-44
2024/04/01 20:19:44;;;;;;;10.40;2.78;;;;;;;;;;1035820;27;20386;-50
2024/04/01 20:20:17;;;;;;;6.45;2.40;;;;;;;;;;1033839;28;20132;-46
2024/04/01 20:20:49;;;;;;;16.55;2.97;;;;;;;;;;1036915;28;20045;-48
2024/04/01 20:21:20;;;;;;;10.27;2.30;;;;;;;;;;1047192;28;20001;-47
2024/04/01 20:21:51;;;;;;;13.27;2.80;;;;;;;;;;1042986;28;20021;-48
2024/04/01 20:22:23;;;;;;;13.55;2.72;;;;;;;;;;1042748;28;20033;-45
2024/04/01 20:22:58;;;;;;;9.70;2.58;;;;;;;;;;1042574;28;20017;-48
2024/04/01 20:24:40;;;;;;;3.42;0.63;;;;;;;;;;1050161;28;20378;-51
2024/04/01 20:25:15;;;;;;;2.50;0.68;;;;;;;;;;1049160;28;20140;-52
2024/04/01 20:25:47;;;;;;;3.03;0.90;;;;;;;;;;1047521;28;20040;-52
2024/04/01 20:26:19;;;;;;;2.88;0.88;;;;;;;;;;1047649;28;20395;-52
2024/04/01 20:26:50;;;;;;;2.65;1.17;;;;;;;;;;1046949;28;20388;-52
2024/04/01 20:27:22;;;;;;;3.33;0.80;;;;;;;;;;1047906;28;20473;-52
2024/04/01 20:27:54;;;;;;;3.40;0.98;;;;;;;;;;1050116;28;20359;-51
2024/04/01 20:28:25;;;;;;;4.35;1.00;;;;;;;;;;1047599;28;20415;-51
2024/04/01 20:28:56;;;;;;;3.38;0.70;;;;;;;;;;1046658;28;20013;-51
2024/04/01 20:29:28;;;;;;;3.50;0.80;;;;;;;;;;1050787;28;20012;-51
2024/04/01 20:29:59;;;;;;;3.63;0.80;;;;;;;;;;1050378;28;20012;-52
2024/04/01 20:30:32;;;;;;;4.53;1.42;;;;;;;;;;1050420;28;20042;-51
2024/04/01 20:31:04;;;;;;;4.97;2.08;;;;;;;;;;1051645;28;20022;-51
2024/04/01 20:31:38;;;;;;;3.28;1.10;;;;;;;;;;1041594;28;20028;-51
2024/04/01 20:32:17;;;;;;;4.30;1.10;;;;;;;;;;1043646;28;20017;-52
2024/04/01 20:32:48;;;;;;;4.53;1.10;;;;;;;;;;1043708;28;20151;-50
2024/04/01 20:33:26;;;;;;;4.38;1.27;;;;;;;;;;1044173;28;20040;-51
2024/04/01 20:34:00;;;;;;;2.60;0.93;;;;;;;;;;1047198;28;20083;-51
2024/04/01 20:34:31;;;;;;;4.38;1.13;;;;;;;;;;1047033;28;20032;-50
2024/04/01 20:35:03;;;;;;;2.92;1.00;;;;;;;;;;1049979;28;20091;-51
2024/04/01 20:35:35;;;;;;;3.97;0.95;;;;;;;;;;1053848;28;20040;-51
2024/04/01 20:36:13;;;;;;;4.82;1.00;;;;;;;;;;1050694;28;20122;-50
2024/04/01 20:36:57;;;;;;;3.88;1.00;;;;;;;;;;1047533;28;20039;-50
2024/04/01 20:37:29;;;;;;;3.58;1.10;;;;;;;;;;1047343;28;20028;-50
2024/04/01 20:38:01;;;;;;;3.88;1.60;;;;;;;;;;1047164;28;20079;-50
2024/04/01 20:38:33;;;;;;;4.50;1.80;;;;;;;;;;1047343;28;20383;-50
2024/04/01 20:39:04;;;;;;;3.22;1.02;;;;;;;;;;1048046;28;20400;-50
2024/04/01 20:39:36;;;;;;;3.30;0.88;;;;;;;;;;1054386;28;20082;-49
2024/04/01 20:40:12;;;;;;;3.75;1.17;;;;;;;;;;1054500;28;20020;-49
2024/04/01 20:40:44;;;;;;;4.93;1.10;;;;;;;;;;1047220;28;20050;-49
2024/04/01 20:41:19;;;;;;;3.58;1.10;;;;;;;;;;1047215;28;20024;-50
2024/04/01 20:41:51;;;;;;;3.95;1.02;;;;;;;;;;1043045;28;20087;-50
2024/04/01 20:42:22;;;;;;;5.43;1.10;;;;;;;;;;1044116;28;20498;-50
2024/04/01 20:42:54;;;;;;;3.95;1.10;;;;;;;;;;1050652;28;20345;-49
2024/04/01 20:43:25;;;;;;;3.13;0.90;;;;;;;;;;1046759;28;20013;-51
2024/04/01 20:43:57;;;;;;;2.58;0.85;;;;;;;;;;1043454;28;20014;-50
2024/04/01 20:44:29;;;;;;;3.40;1.00;;;;;;;;;;1046678;28;20013;-50
2024/04/01 20:45:02;;;;;;;3.35;1.45;;;;;;;;;;1053499;28;20012;-50
2024/04/01 20:45:35;;;;;;;2.88;1.00;;;;;;;;;;1049674;28;20021;-50
2024/04/01 20:46:07;;;;;;;5.18;0.90;;;;;;;;;;1051308;28;20467;-49
2024/04/01 20:46:38;;;;;;;3.85;1.30;;;;;;;;;;1045849;28;20009;-51
2024/04/01 20:47:10;;;;;;;4.03;1.00;;;;;;;;;;1043675;28;20014;-51
2024/04/01 20:47:42;;;;;;;2.63;1.00;;;;;;;;;;1047108;28;20134;-51
2024/04/01 20:48:25;;;;;;;1.67;0.70;;;;;;;;;;1047339;28;20021;-50
2024/04/01 20:48:57;;;;;;;3.70;1.00;;;;;;;;;;1043411;28;20467;-50
2024/04/01 20:49:28;;;;;;;2.60;0.80;;;;;;;;;;1043488;28;20032;-51
2024/04/01 20:50:00;;;;;;;6.88;0.82;;;;;;;;;;1043515;28;20025;-50
2024/04/01 20:50:31;;;;;;;3.00;0.70;;;;;;;;;;1047680;28;20013;-50
2024/04/01 20:51:02;;;;;;;3.15;0.77;;;;;;;;;;1047370;28;20032;-50
2024/04/01 20:51:35;;;;;;;4.15;0.63;;;;;;;;;;1047251;28;20349;-50
2024/04/01 20:52:25;;;;;;;4.03;1.70;;;;;;;;;;1047219;28;20494;-49
2024/04/01 20:52:58;;;;;;;3.50;1.02;;;;;;;;;;1049606;28;20009;-51
2024/04/01 20:53:31;;;;;;;4.05;0.95;;;;;;;;;;1049765;28;20016;-51
2024/04/01 20:54:03;;;;;;;1.73;0.80;;;;;;;;;;1047601;28;20786;-50
2024/04/01 20:54:35;;;;;;;4.75;0.88;;;;;;;;;;1047589;28;20016;-50
2024/04/01 20:55:07;;;;;;;5.55;1.10;;;;;;;;;;1046323;28;20112;-50
2024/04/01 20:55:39;;;;;;;1.70;0.63;;;;;;;;;;1047710;28;20032;-50
2024/04/01 20:56:29;;;;;;;2.30;0.52;;;;;;;;;;1047266;28;20020;-51
2024/04/01 20:57:01;;;;;;;1.80;0.70;;;;;;;;;;1045665;28;20028;-50
2024/04/01 20:57:36;;;;;;;3.92;0.90;;;;;;;;;;1047491;28;20064;-51
2024/04/01 20:58:15;;;;;;;3.42;0.70;;;;;;;;;;1047489;28;20028;-49
2024/04/01 20:58:47;;;;;;;3.70;0.82;;;;;;;;;;1047589;28;20013;-51
2024/04/01 20:59:21;;;;;;;2.95;0.55;;;;;;;;;;1048368;28;20040;-50
2024/04/01 20:59:52;;;;;;;3.63;0.90;;;;;;;;;;1048513;28;20023;-49
2024/04/01 21:00:37;;;;;;;3.70;1.02;;;;;;;;;;1051714;28;20114;-50
2024/04/01 21:01:08;;;;;;;2.35;0.82;;;;;;;;;;1044030;28;20021;-49
2024/04/01 21:01:39;;;;;;;2.88;0.52;;;;;;;;;;1048201;28;20108;-50
2024/04/01 21:02:25;;;;;;;4.05;0.80;;;;;;;;;;1047093;28;20039;-50
2024/04/01 21:02:56;;;;;;;4.45;0.65;;;;;;;;;;1042877;28;20021;-50
2024/04/01 21:03:37;;;;;;;7.25;1.23;;;;;;;;;;1045468;28;20022;-50
2024/04/01 21:04:11;;;;;;;3.17;0.82;;;;;;;;;;1046801;28;20079;-51
2024/04/01 21:04:43;;;;;;;4.93;0.88;;;;;;;;;;1045015;28;20049;-50
2024/04/01 21:05:27;;;;;;;3.08;0.85;;;;;;;;;;1047027;28;20094;-51
2024/04/01 21:05:59;;;;;;;5.45;2.25;;;;;;;;;;1045023;28;20086;-51
2024/04/01 21:06:31;;;;;;;3.65;1.55;;;;;;;;;;1045649;28;20520;-52
2024/04/01 21:07:04;;;;;;;5.75;1.85;;;;;;;;;;1046804;28;20396;-50
2024/04/01 21:07:35;;;;;;;4.00;0.88;;;;;;;;;;1047068;28;20430;-50
2024/04/01 21:08:07;;;;;;;3.42;0.70;;;;;;;;;;1046713;28;20009;-50
2024/04/01 21:08:39;;;;;;;3.25;0.95;;;;;;;;;;1046134;28;20025;-50
2024/04/01 21:09:10;;;;;;;4.28;0.98;;;;;;;;;;1046687;28;20012;-50
2024/04/01 21:09:41;;;;;;;3.33;0.98;;;;;;;;;;1043454;28;20009;-51
2024/04/01 21:10:13;;;;;;;2.75;0.88;;;;;;;;;;1043548;28;20017;-50
2024/04/01 21:10:45;;;;;;;3.33;0.82;;;;;;;;;;1046538;28;20012;-50
2024/04/01 21:11:17;;;;;;;1.92;0.77;;;;;;;;;;1047278;28;20089;-51
2024/04/01 21:11:48;;;;;;;4.05;0.98;;;;;;;;;;1046928;28;20075;-50
2024/04/01 21:12:19;;;;;;;4.28;0.57;;;;;;;;;;1047153;28;20013;-52
2024/04/01 21:12:51;;;;;;;2.83;0.70;;;;;;;;;;1047060;28;20729;-50
2024/04/01 21:13:22;;;;;;;3.47;1.25;;;;;;;;;;1047287;28;20012;-51
2024/04/01 21:13:55;;;;;;;3.33;1.05;;;;;;;;;;1047005;28;20015;-50
2024/04/01 21:14:26;;;;;;;3.13;0.90;;;;;;;;;;1047428;28;20092;-50
2024/04/01 21:14:58;;;;;;;2.38;0.77;;;;;;;;;;1047118;28;20040;-51
2024/04/01 21:15:29;;;;;;;3.70;0.82;;;;;;;;;;1046338;28;20048;-51
2024/04/01 21:16:00;;;;;;;2.72;0.80;;;;;;;;;;1043156;28;20135;-50
2024/04/01 21:16:32;;;;;;;2.13;0.60;;;;;;;;;;1046624;28;20894;-49
2024/04/01 21:17:05;;;;;;;4.07;1.15;;;;;;;;;;1047364;28;20453;-50
2024/04/01 21:17:36;;;;;;;3.33;1.13;;;;;;;;;;1047542;28;20009;-50
2024/04/01 21:18:07;;;;;;;3.28;0.77;;;;;;;;;;1047497;28;20391;-50
2024/04/01 21:18:39;;;;;;;2.45;0.80;;;;;;;;;;1047199;28;20043;-50
2024/04/01 21:19:11;;;;;;;3.13;0.70;;;;;;;;;;1047355;28;20017;-51
2024/04/01 21:19:42;;;;;;;2.70;0.73;;;;;;;;;;1047507;28;20028;-50
2024/04/01 21:20:14;;;;;;;20.60;11.82;;;;;;;;;;1046908;28;20531;-49
2024/04/01 21:20:45;;;;;;;11.05;4.93;;;;;;;;;;1046780;28;20041;-51
2024/04/01 21:21:16;;;;;;;3.67;1.42;;;;;;;;;;1047109;28;20040;-50
2024/04/01 21:21:48;;;;;;;7.35;3.05;;;;;;;;;;1046873;28;20052;-50
2024/04/01 21:22:19;;;;;;;11.15;4.85;;;;;;;;;;1047290;28;20104;-50
2024/04/01 21:22:51;;;;;;;7.20;2.15;;;;;;;;;;1047157;28;20025;-49
2024/04/01 21:23:23;;;;;;;5.72;2.08;;;;;;;;;;1046944;28;20028;-50
2024/04/01 21:23:54;;;;;;;2.25;1.00;;;;;;;;;;1044939;28;20051;-50
2024/04/01 21:24:26;;;;;;;4.72;1.80;;;;;;;;;;1042927;28;20045;-50
2024/04/01 21:24:58;;;;;;;4.30;1.20;;;;;;;;;;1044518;28;20088;-50
2024/04/01 21:25:30;;;;;;;6.97;1.48;;;;;;;;;;1046638;28;20112;-50
2024/04/01 21:26:03;;;;;;;4.55;1.17;;;;;;;;;;1046855;28;20014;-50
2024/04/01 21:26:35;;;;;;;3.03;1.35;;;;;;;;;;1042451;28;20084;-49
2024/04/01 21:27:06;;;;;;;2.90;0.98;;;;;;;;;;1042948;28;20005;-50
2024/04/01 21:27:39;;;;;;;4.55;1.20;;;;;;;;;;1042786;28;20092;-50
2024/04/01 21:28:10;;;;;;;6.20;1.33;;;;;;;;;;1042846;28;19998;-49
2024/04/01 21:28:42;;;;;;;8.35;1.70;;;;;;;;;;1043297;28;20031;-50
2024/04/01 21:29:13;;;;;;;3.72;0.90;;;;;;;;;;1046792;28;20013;-50
2024/04/01 21:29:45;;;;;;;6.43;1.10;;;;;;;;;;1046548;28;20020;-50
2024/04/01 21:30:17;;;;;;;5.38;1.27;;;;;;;;;;1045717;28;20028;-50
2024/04/01 21:30:49;;;;;;;6.93;1.35;;;;;;;;;;1047389;28;20020;-50
2024/04/01 21:31:20;;;;;;;3.92;1.52;;;;;;;;;;1047032;28;20013;-50
2024/04/01 21:31:52;;;;;;;2.08;0.93;;;;;;;;;;1046352;28;20102;-50
2024/04/01 21:32:23;;;;;;;3.78;1.38;;;;;;;;;;1043370;28;20009;-51
2024/04/01 21:32:54;;;;;;;4.57;1.10;;;;;;;;;;1043369;28;20037;-50
2024/04/01 21:33:26;;;;;;;4.57;1.40;;;;;;;;;;1047247;28;20017;-50
2024/04/01 21:33:57;;;;;;;2.78;1.10;;;;;;;;;;1046913;28;20012;-50
2024/04/01 21:34:28;;;;;;;3.75;1.13;;;;;;;;;;1047173;28;20017;-51
2024/04/01 21:34:59;;;;;;;4.60;1.10;;;;;;;;;;1047134;28;20028;-51
2024/04/01 21:35:31;;;;;;;5.63;1.42;;;;;;;;;;1047188;28;20023;-50
2024/04/01 21:36:02;;;;;;;5.25;1.40;;;;;;;;;;1044520;28;20446;-51
2024/04/01 21:36:33;;;;;;;3.75;1.00;;;;;;;;;;1044527;28;20017;-50
2024/04/01 21:37:05;;;;;;;5.88;1.45;;;;;;;;;;1043396;28;20056;-50
2024/04/01 21:37:39;;;;;;;2.83;0.93;;;;;;;;;;1044486;28;20715;-49
2024/04/01 21:38:10;;;;;;;2.90;1.00;;;;;;;;;;1044515;28;20028;-50
2024/04/01 21:38:42;;;;;;;4.90;1.13;;;;;;;;;;1044096;28;20059;-49
2024/04/01 21:39:13;;;;;;;3.05;1.05;;;;;;;;;;1040465;28;20020;-50
2024/04/01 21:39:45;;;;;;;5.32;1.25;;;;;;;;;;1041644;28;20048;-50
2024/04/01 21:40:16;;;;;;;5.65;1.45;;;;;;;;;;1044595;28;20092;-51
2024/04/01 21:40:47;;;;;;;3.50;1.42;;;;;;;;;;1043875;28;20013;-50
2024/04/01 21:41:18;;;;;;;2.97;1.20;;;;;;;;;;1045205;28;20041;-51
2024/04/01 21:41:49;;;;;;;3.78;1.63;;;;;;;;;;1044335;28;20034;-51
2024/04/01 21:42:21;;;;;;;4.15;1.85;;;;;;;;;;1044325;28;20027;-51
2024/04/01 21:42:52;;;;;;;3.00;1.50;;;;;;;;;;1044096;28;20016;-50
2024/04/01 21:43:24;;;;;;;6.20;1.60;;;;;;;;;;1044435;28;20025;-50
2024/04/01 21:43:55;;;;;;;6.22;1.38;;;;;;;;;;1044621;28;20055;-49
2024/04/01 21:44:26;;;;;;;8.35;2.30;;;;;;;;;;1043786;28;20108;-49
2024/04/01 21:44:58;;;;;;;3.55;1.30;;;;;;;;;;1044291;28;20009;-50
2024/04/01 21:45:29;;;;;;;6.15;1.40;;;;;;;;;;1044418;28;20017;-50
2024/04/01 21:46:00;;;;;;;2.38;0.95;;;;;;;;;;1043034;28;20013;-49
2024/04/01 21:46:32;;;;;;;4.68;1.45;;;;;;;;;;1044557;28;20028;-50
2024/04/01 21:47:03;;;;;;;6.07;1.20;;;;;;;;;;1044330;28;20013;-50
2024/04/01 21:47:34;;;;;;;3.45;1.40;;;;;;;;;;1043852;28;20078;-51
2024/04/01 21:48:06;;;;;;;3.65;1.30;;;;;;;;;;1044170;28;20024;-49
2024/04/01 21:48:38;;;;;;;2.42;1.08;;;;;;;;;;1044292;28;20067;-50
2024/04/01 21:49:09;;;;;;;4.93;1.70;;;;;;;;;;1044009;28;20012;-50
2024/04/01 21:49:40;;;;;;;6.50;1.40;;;;;;;;;;1044142;28;20016;-51
2024/04/01 21:50:11;;;;;;;5.05;1.50;;;;;;;;;;1044182;28;20166;-51
2024/04/01 21:50:43;;;;;;;4.82;1.50;;;;;;;;;;1044098;28;20016;-49
2024/04/01 21:51:14;;;;;;;3.72;1.58;;;;;;;;;;1044561;28;20021;-49
2024/04/01 21:51:49;;;;;;;4.43;1.50;;;;;;;;;;1044531;28;20040;-52
2024/04/01 21:52:20;;;;;;;5.68;1.20;;;;;;;;;;1044010;28;20005;-51
2024/04/01 21:52:52;;;;;;;5.93;1.40;;;;;;;;;;1044285;28;20013;-51
2024/04/01 21:53:24;;;;;;;9.35;1.65;;;;;;;;;;1044263;28;20103;-51
2024/04/01 21:53:55;;;;;;;2.22;1.10;;;;;;;;;;1044069;28;20100;-50
2024/04/01 21:54:26;;;;;;;4.00;1.42;;;;;;;;;;1044291;28;20013;-51
2024/04/01 21:54:59;;;;;;;5.90;1.63;;;;;;;;;;1044336;28;20101;-51
2024/04/01 21:55:31;;;;;;;3.72;1.42;;;;;;;;;;1046432;28;20024;-50
2024/04/01 21:56:02;;;;;;;4.90;1.92;;;;;;;;;;1040546;28;20014;-51
2024/04/01 21:56:33;;;;;;;5.60;1.40;;;;;;;;;;1040267;28;20045;-50
2024/04/01 21:57:05;;;;;;;3.58;1.77;;;;;;;;;;1040225;28;20167;-50
2024/04/01 21:57:36;;;;;;;3.88;1.45;;;;;;;;;;1044143;28;20009;-50
2024/04/01 21:58:10;;;;;;;3.00;1.00;;;;;;;;;;1044250;28;20071;-50
2024/04/01 21:58:41;;;;;;;5.95;1.40;;;;;;;;;;1044330;28;20013;-50
2024/04/01 21:59:12;;;;;;;4.10;1.67;;;;;;;;;;1046965;28;20082;-51
2024/04/01 21:59:44;;;;;;;3.17;0.90;;;;;;;;;;1048742;28;20015;-51
2024/04/01 22:00:18;;;;;;;3.95;1.23;;;;;;;;;;1048600;28;20039;-50
2024/04/01 22:00:49;;;;;;;4.60;1.10;;;;;;;;;;1044373;28;20059;-51
2024/04/01 22:01:22;;;;;;;3.35;1.60;;;;;;;;;;1044607;28;20014;-50
2024/04/01 22:01:53;;;;;;;4.22;1.50;;;;;;;;;;1044175;28;20037;-50
2024/04/01 22:02:24;;;;;;;4.05;1.15;;;;;;;;;;1043833;28;20041;-48
2024/04/01 22:02:56;;;;;;;4.97;1.27;;;;;;;;;;1044231;28;20102;-50
2024/04/01 22:03:27;;;;;;;4.57;1.65;;;;;;;;;;1039983;28;20022;-49
2024/04/01 22:03:58;;;;;;;3.33;1.00;;;;;;;;;;1043380;28;20060;-50
2024/04/01 22:04:31;;;;;;;2.80;1.38;;;;;;;;;;1043966;28;20102;-49
2024/04/01 22:05:03;;;;;;;3.90;1.30;;;;;;;;;;1042248;28;20091;-49
2024/04/01 22:05:34;;;;;;;2.60;0.95;;;;;;;;;;1043068;28;20086;-50
2024/04/01 22:06:05;;;;;;;7.45;1.48;;;;;;;;;;1044033;28;20099;-50
2024/04/01 22:06:37;;;;;;;4.43;1.02;;;;;;;;;;1039886;28;20030;-51
2024/04/01 22:07:08;;;;;;;6.55;1.10;;;;;;;;;;1039642;28;20416;-50
2024/04/01 22:07:40;;;;;;;3.47;0.98;;;;;;;;;;1040418;28;20013;-52
2024/04/01 22:08:11;;;;;;;2.60;0.93;;;;;;;;;;1043620;28;20021;-50
2024/04/01 22:08:42;;;;;;;4.93;2.10;;;;;;;;;;1042318;28;20060;-50
2024/04/01 22:09:14;;;;;;;3.95;0.80;;;;;;;;;;1044322;28;20005;-50
2024/04/01 22:09:45;;;;;;;2.92;0.75;;;;;;;;;;1044590;28;20090;-50
2024/04/01 22:10:17;;;;;;;4.38;1.25;;;;;;;;;;1044126;28;20005;-50
2024/04/01 22:10:49;;;;;;;5.18;1.02;;;;;;;;;;1044336;28;20125;-50
2024/04/01 22:11:20;;;;;;;5.22;1.17;;;;;;;;;;1044380;28;20021;-51
2024/04/01 22:11:51;;;;;;;3.05;1.23;;;;;;;;;;1044234;28;20112;-50
2024/04/01 22:12:22;;;;;;;4.85;1.30;;;;;;;;;;1044346;28;20017;-50
2024/04/01 22:12:54;;;;;;;3.00;0.90;;;;;;;;;;1044431;28;20005;-51
2024/04/01 22:13:25;;;;;;;2.33;1.10;;;;;;;;;;1044004;28;20115;-52
2024/04/01 22:13:56;;;;;;;4.25;1.20;;;;;;;;;;1044367;28;20017;-51
2024/04/01 22:14:28;;;;;;;3.17;1.00;;;;;;;;;;1044367;28;20381;-51
2024/04/01 22:15:03;;;;;;;3.08;0.80;;;;;;;;;;1044325;28;20100;-50
2024/04/01 22:15:34;;;;;;;4.70;1.05;;;;;;;;;;1043893;28;20013;-50
2024/04/01 22:16:06;;;;;;;4.82;1.20;;;;;;;;;;1044345;28;20020;-50
2024/04/01 22:16:37;;;;;;;6.70;1.35;;;;;;;;;;1043306;28;20020;-50
2024/04/01 22:17:09;;;;;;;4.55;1.15;;;;;;;;;;1043865;28;20059;-51
2024/04/01 22:17:40;;;;;;;2.70;1.10;;;;;;;;;;1039811;28;20005;-51
2024/04/01 22:18:11;;;;;;;5.85;1.10;;;;;;;;;;1040314;28;20084;-50
2024/04/01 22:18:42;;;;;;;4.95;1.08;;;;;;;;;;1043766;28;20005;-50
2024/04/01 22:19:14;;;;;;;3.88;1.30;;;;;;;;;;1044036;28;20017;-50
2024/04/01 22:19:45;;;;;;;5.18;1.20;;;;;;;;;;1044367;28;20021;-50
2024/04/01 22:20:17;;;;;;;5.00;1.20;;;;;;;;;;1044693;28;20479;-51
2024/04/01 22:20:48;;;;;;;4.68;1.00;;;;;;;;;;1047360;28;20024;-50
2024/04/01 22:21:19;;;;;;;5.72;1.17;;;;;;;;;;1044337;28;20495;-50
2024/04/01 22:21:50;;;;;;;3.58;1.17;;;;;;;;;;1043848;28;20403;-51
2024/04/01 22:22:22;;;;;;;5.55;1.95;;;;;;;;;;1045061;28;20021;-50
2024/04/01 22:22:54;;;;;;;2.53;1.50;;;;;;;;;;1044036;28;20385;-50
2024/04/01 22:23:26;;;;;;;4.40;1.10;;;;;;;;;;1043861;28;20396;-52
2024/04/01 22:23:57;;;;;;;4.72;1.50;;;;;;;;;;1044022;28;20021;-50
2024/04/01 22:24:29;;;;;;;4.05;0.95;;;;;;;;;;1043915;28;20041;-50
2024/04/01 22:25:01;;;;;;;4.97;1.55;;;;;;;;;;1043801;28;20009;-50
2024/04/01 22:25:33;;;;;;;3.53;1.23;;;;;;;;;;1044019;28;20009;-49
2024/04/01 22:26:04;;;;;;;2.95;1.00;;;;;;;;;;1044341;28;20016;-50
2024/04/01 22:26:37;;;;;;;6.50;1.20;;;;;;;;;;1043344;28;20091;-50
2024/04/01 22:27:08;;;;;;;4.80;1.20;;;;;;;;;;1045457;28;20009;-50
2024/04/01 22:27:39;;;;;;;3.13;1.27;;;;;;;;;;1044029;28;20073;-50
2024/04/01 22:28:10;;;;;;;5.55;1.60;;;;;;;;;;1043732;28;20125;-50
2024/04/01 22:28:42;;;;;;;3.78;1.00;;;;;;;;;;1044226;28;20021;-50
2024/04/01 22:29:13;;;;;;;5.20;1.30;;;;;;;;;;1044119;28;20368;-50
2024/04/01 22:29:44;;;;;;;3.33;1.00;;;;;;;;;;1043871;28;20017;-50
2024/04/01 22:30:16;;;;;;;3.58;1.05;;;;;;;;;;1043798;28;20552;-50
2024/04/01 22:30:47;;;;;;;5.50;1.30;;;;;;;;;;1044039;28;20017;-50
2024/04/01 22:31:18;;;;;;;3.55;1.10;;;;;;;;;;1044290;28;20044;-52
2024/04/01 22:31:50;;;;;;;3.63;1.08;;;;;;;;;;1044166;28;20115;-51
2024/04/01 22:32:22;;;;;;;4.30;1.25;;;;;;;;;;1044269;28;20369;-51
2024/04/01 22:32:53;;;;;;;3.30;1.08;;;;;;;;;;1044160;28;20005;-52
2024/04/01 22:33:24;;;;;;;3.17;0.90;;;;;;;;;;1042049;28;20025;-50
2024/04/01 22:33:55;;;;;;;2.60;0.90;;;;;;;;;;1040252;28;20013;-50
2024/04/01 22:34:27;;;;;;;4.05;1.23;;;;;;;;;;1040334;28;20104;-51
2024/04/01 22:34:58;;;;;;;3.55;0.95;;;;;;;;;;1042003;28;20106;-51
2024/04/01 22:35:30;;;;;;;7.00;1.40;;;;;;;;;;1044070;28;20096;-50
2024/04/01 22:36:01;;;;;;;4.45;1.30;;;;;;;;;;1044013;28;20476;-51
2024/04/01 22:36:32;;;;;;;5.78;1.10;;;;;;;;;;1043874;28;20013;-51
2024/04/01 22:37:04;;;;;;;4.70;1.80;;;;;;;;;;1044073;28;20020;-51
2024/04/01 22:37:35;;;;;;;6.72;1.88;;;;;;;;;;1044294;28;20017;-50
2024/04/01 22:38:06;;;;;;;3.30;0.90;;;;;;;;;;1043985;28;20009;-51
2024/04/01 22:38:38;;;;;;;3.10;1.20;;;;;;;;;;1044324;28;20096;-50
2024/04/01 22:39:10;;;;;;;3.03;1.30;;;;;;;;;;1044429;28;20506;-51
2024/04/01 22:39:41;;;;;;;6.25;1.10;;;;;;;;;;1043748;28;20033;-51
2024/04/01 22:40:12;;;;;;;4.68;1.02;;;;;;;;;;1044072;28;20049;-51
2024/04/01 22:40:44;;;;;;;3.78;1.05;;;;;;;;;;1043954;28;20460;-51
2024/04/01 22:41:15;;;;;;;3.50;1.15;;;;;;;;;;1043825;28;20092;-51
2024/04/01 22:41:46;;;;;;;3.97;1.20;;;;;;;;;;1041897;28;20028;-50
2024/04/01 22:42:18;;;;;;;3.97;1.15;;;;;;;;;;1040136;28;20085;-52
2024/04/01 22:42:49;;;;;;;5.45;1.10;;;;;;;;;;1039835;28;20504;-50
2024/04/01 22:43:21;;;;;;;3.15;0.95;;;;;;;;;;1039273;28;20033;-51
2024/04/01 22:43:52;;;;;;;5.22;1.33;;;;;;;;;;1037518;28;20037;-51
2024/04/01 22:44:32;;;;;;;2.40;1.10;;;;;;;;;;1037074;28;20017;-51
2024/04/01 22:45:03;;;;;;;5.07;1.55;;;;;;;;;;1040436;28;20500;-51
2024/04/01 22:45:34;;;;;;;3.55;1.15;;;;;;;;;;1044222;28;20876;-51
2024/04/01 22:46:06;;;;;;;3.05;1.00;;;;;;;;;;1044291;28;20017;-50
2024/04/01 22:46:37;;;;;;;4.85;1.00;;;;;;;;;;1043845;28;20029;-51
2024/04/01 22:47:09;;;;;;;2.45;1.00;;;;;;;;;;1043962;28;20539;-51
2024/04/01 22:47:40;;;;;;;3.85;1.38;;;;;;;;;;1043290;28;20087;-50
2024/04/01 22:48:11;;;;;;;2.65;0.93;;;;;;;;;;1043568;28;20024;-50
2024/04/01 22:48:42;;;;;;;5.00;1.15;;;;;;;;;;1043909;28;20095;-49
2024/04/01 22:49:14;;;;;;;3.97;1.48;;;;;;;;;;1044207;28;20051;-50
2024/04/01 22:49:45;;;;;;;3.28;1.08;;;;;;;;;;1043020;28;20056;-50
2024/04/01 22:50:16;;;;;;;4.38;1.25;;;;;;;;;;1040843;28;20025;-51
2024/04/01 22:50:48;;;;;;;3.95;1.00;;;;;;;;;;1040863;28;20575;-52
2024/04/01 22:51:19;;;;;;;4.60;1.00;;;;;;;;;;1041104;28;20025;-50
2024/04/01 22:51:50;;;;;;;3.80;1.00;;;;;;;;;;1040448;28;20033;-50
2024/04/01 22:52:22;;;;;;;5.03;1.00;;;;;;;;;;1044039;28;20017;-51
2024/04/01 22:52:53;;;;;;;5.38;1.00;;;;;;;;;;1041190;28;20132;-51
2024/04/01 22:53:25;;;;;;;3.17;0.75;;;;;;;;;;1040556;28;20408;-49
2024/04/01 22:53:56;;;;;;;2.40;0.75;;;;;;;;;;1042320;28;20029;-49
2024/04/01 22:54:31;;;;;;;5.60;0.95;;;;;;;;;;1043898;28;20039;-50
2024/04/01 22:55:05;;;;;;;2.88;0.90;;;;;;;;;;1038424;28;20389;-50
2024/04/01 22:55:38;;;;;;;3.53;0.80;;;;;;;;;;1032263;28;20050;-50
2024/04/01 22:56:09;;;;;;;6.20;1.00;;;;;;;;;;1037373;28;20030;-51
2024/04/01 22:56:40;;;;;;;7.82;1.25;;;;;;;;;;1036449;28;20508;-49
2024/04/01 22:57:12;;;;;;;6.50;1.45;;;;;;;;;;1039734;28;20033;-49
2024/04/01 22:57:43;;;;;;;4.47;1.33;;;;;;;;;;1042058;28;20523;-50
2024/04/01 22:58:15;;;;;;;5.30;1.00;;;;;;;;;;1037522;28;20449;-50
2024/04/01 22:58:47;;;;;;;5.45;1.50;;;;;;;;;;1035448;28;20013;-50
2024/04/01 22:59:19;;;;;;;5.60;1.80;;;;;;;;;;1039202;28;20025;-50
2024/04/01 22:59:50;;;;;;;4.47;1.40;;;;;;;;;;1040757;28;20014;-50
2024/04/01 23:00:21;;;;;;;4.18;1.40;;;;;;;;;;1039715;28;20009;-51
2024/04/01 23:00:53;;;;;;;8.95;5.43;;;;;;;;;;1043783;28;20395;-50
2024/04/01 23:01:24;;;;;;;4.53;1.25;;;;;;;;;;1043403;28;20017;-50
2024/04/01 23:01:56;;;;;;;5.25;1.50;;;;;;;;;;1044129;28;20013;-51
2024/04/01 23:02:27;;;;;;;1.75;1.17;;;;;;;;;;1043656;28;20071;-50
2024/04/01 23:02:58;;;;;;;4.70;1.15;;;;;;;;;;1044346;28;20429;-52
2024/04/01 23:03:30;;;;;;;2.65;0.90;;;;;;;;;;1038496;28;20037;-50
2024/04/01 23:04:01;;;;;;;5.50;1.00;;;;;;;;;;1037391;28;20014;-51
2024/04/01 23:04:35;;;;;;;4.95;1.33;;;;;;;;;;1039188;28;20100;-51
2024/04/01 23:05:07;;;;;;;4.25;1.05;;;;;;;;;;1043081;28;20012;-50
2024/04/01 23:05:38;;;;;;;3.58;1.00;;;;;;;;;;1043239;28;20540;-50
2024/04/01 23:06:13;;;;;;;3.03;0.85;;;;;;;;;;1040088;28;20571;-51
2024/04/01 23:06:46;;;;;;;4.07;0.98;;;;;;;;;;1042456;28;20445;-50
2024/04/01 23:07:17;;;;;;;6.80;1.42;;;;;;;;;;1042626;28;20059;-49
2024/04/01 23:07:48;;;;;;;5.18;0.90;;;;;;;;;;1040060;28;20060;-51
2024/04/01 23:08:19;;;;;;;3.13;0.98;;;;;;;;;;1043832;28;20026;-50
2024/04/01 23:08:51;;;;;;;2.95;1.00;;;;;;;;;;1040084;28;20234;-50
2024/04/01 23:09:22;;;;;;;3.15;1.10;;;;;;;;;;1039805;28;20025;-51
2024/04/01 23:09:55;;;;;;;5.88;1.60;;;;;;;;;;1042917;28;20079;-53
2024/04/01 23:10:29;;;;;;;5.10;0.88;;;;;;;;;;1040962;28;20014;-51
2024/04/01 23:11:00;;;;;;;4.72;0.98;;;;;;;;;;1044542;28;20021;-50
2024/04/01 23:11:31;;;;;;;4.80;1.00;;;;;;;;;;1046285;28;20012;-50
2024/04/01 23:12:03;;;;;;;4.40;1.08;;;;;;;;;;1043687;28;20021;-50
2024/04/01 23:12:34;;;;;;;5.05;1.00;;;;;;;;;;1040247;28;20002;-51
2024/04/01 23:13:06;;;;;;;5.70;2.10;;;;;;;;;;1038926;28;20048;-50
2024/04/01 23:13:37;;;;;;;3.42;0.85;;;;;;;;;;1039682;28;20005;-51
2024/04/01 23:14:08;;;;;;;3.38;0.85;;;;;;;;;;1040522;28;20018;-49
2024/04/01 23:14:39;;;;;;;3.42;0.90;;;;;;;;;;1039857;28;20029;-50
2024/04/01 23:15:12;;;;;;;2.10;0.85;;;;;;;;;;1043212;28;20072;-50
2024/04/01 23:15:43;;;;;;;3.33;0.70;;;;;;;;;;1043410;28;20031;-50
2024/04/01 23:16:16;;;;;;;2.92;0.77;;;;;;;;;;1043007;28;20582;-50
2024/04/01 23:16:47;;;;;;;2.88;0.70;;;;;;;;;;1041034;28;20022;-49
2024/04/01 23:17:18;;;;;;;3.95;0.90;;;;;;;;;;1043808;28;20115;-51
2024/04/01 23:17:51;;;;;;;3.00;0.70;;;;;;;;;;1042028;28;20035;-51
2024/04/01 23:18:23;;;;;;;3.45;1.10;;;;;;;;;;1040063;28;20037;-51
2024/04/01 23:18:54;;;;;;;7.65;0.70;;;;;;;;;;1042166;28;20461;-50
2024/04/01 23:19:25;;;;;;;4.10;0.77;;;;;;;;;;1040168;28;20079;-51
2024/04/01 23:19:57;;;;;;;2.75;0.70;;;;;;;;;;1042498;28;20043;-50
2024/04/01 23:20:28;;;;;;;2.33;0.70;;;;;;;;;;1041698;28;20028;-51
2024/04/01 23:20:59;;;;;;;5.38;0.85;;;;;;;;;;1043716;28;20458;-51
2024/04/01 23:21:31;;;;;;;2.92;1.10;;;;;;;;;;1040205;28;20028;-50
2024/04/01 23:22:02;;;;;;;2.53;0.80;;;;;;;;;;1042833;28;20469;-49
2024/04/01 23:22:33;;;;;;;3.28;0.73;;;;;;;;;;1040474;28;20013;-50
2024/04/01 23:23:05;;;;;;;4.10;0.80;;;;;;;;;;1040822;28;20032;-49
2024/04/01 23:23:36;;;;;;;1.92;0.85;;;;;;;;;;1041434;28;20017;-49
2024/04/01 23:24:08;;;;;;;6.07;0.68;;;;;;;;;;1043775;28;20380;-50
2024/04/01 23:24:39;;;;;;;2.15;0.65;;;;;;;;;;1044865;28;20401;-51
2024/04/01 23:25:12;;;;;;;4.10;0.73;;;;;;;;;;1043826;28;20017;-49
2024/04/01 23:25:43;;;;;;;3.08;1.08;;;;;;;;;;1040859;28;20020;-49
2024/04/01 23:26:15;;;;;;;3.10;0.82;;;;;;;;;;1042675;28;20013;-49
2024/04/01 23:26:46;;;;;;;3.40;0.70;;;;;;;;;;1042378;28;20014;-51
2024/04/01 23:27:17;;;;;;;3.63;0.73;;;;;;;;;;1040998;28;20014;-50
2024/04/01 23:27:50;;;;;;;6.47;1.00;;;;;;;;;;1041192;28;20096;-50